createdAt,value
2022-12-03T00:00:13.199Z,39.72
2022-12-03T00:02:41.552Z,39.70
2022-12-03T00:05:09.975Z,37.80
2022-12-03T00:07:37.563Z,37.42
2022-12-03T00:10:05.785Z,32.83
2022-12-03T00:12:33.343Z,35.15
2022-12-03T00:15:01.062Z,37.80
2022-12-03T00:17:28.768Z,33.03
2022-12-03T00:19:59.187Z,35.47
2022-12-03T00:22:26.750Z,37.37
2022-12-03T00:24:54.443Z,38.60
2022-12-03T00:27:22.123Z,39.55
2022-12-03T00:29:49.937Z,34.47
2022-12-03T00:32:17.498Z,31.67
2022-12-03T00:34:45.119Z,35.03
2022-12-03T00:37:12.699Z,37.08
2022-12-03T00:39:40.194Z,34.67
2022-12-03T00:42:07.709Z,38.90
2022-12-03T00:44:35.210Z,31.70
2022-12-03T00:47:02.797Z,31.42
2022-12-03T00:49:30.396Z,34.55
2022-12-03T00:51:57.922Z,31.48
2022-12-03T00:54:30.208Z,33.38
2022-12-03T00:56:59.567Z,33.97
2022-12-03T00:59:27.105Z,33.10
2022-12-03T01:01:54.668Z,31.83
2022-12-03T01:04:22.309Z,33.35
2022-12-03T01:06:49.955Z,31.55
2022-12-03T01:09:17.398Z,29.75
2022-12-03T01:11:44.962Z,32.17
2022-12-03T01:14:13.564Z,30.08
2022-12-03T01:16:41.706Z,30.17
2022-12-03T01:19:10.517Z,25.30
2022-12-03T01:21:38.415Z,26.83
2022-12-03T01:24:06.363Z,29.13
2022-12-03T01:26:33.842Z,30.35
2022-12-03T01:29:01.322Z,27.35
2022-12-03T01:31:47.457Z,28.10
2022-12-03T01:34:14.961Z,27.13
2022-12-03T01:36:42.430Z,26.67
2022-12-03T01:39:09.867Z,25.60
2022-12-03T01:41:37.526Z,27.77
2022-12-03T01:44:15.247Z,27.00
2022-12-03T01:46:43.256Z,23.65
2022-12-03T01:49:18.504Z,29.13
2022-12-03T01:51:46.488Z,28.52
2022-12-03T01:54:16.534Z,26.10
2022-12-03T01:56:44.367Z,27.77
2022-12-03T01:59:15.943Z,29.30
2022-12-03T02:01:43.787Z,28.60
2022-12-03T02:04:14.091Z,29.02
2022-12-03T02:06:42.355Z,21.97
2022-12-03T02:09:13.591Z,22.13
2022-12-03T02:11:45.989Z,20.83
2022-12-03T02:14:16.426Z,20.00
2022-12-03T02:16:44.778Z,18.90
2022-12-03T02:19:26.080Z,22.80
2022-12-03T02:24:23.984Z,20.40
2022-12-03T02:26:51.578Z,21.70
2022-12-03T02:29:19.038Z,23.33
2022-12-03T02:31:46.852Z,23.85
2022-12-03T02:34:36.081Z,25.80
2022-12-03T02:37:04.683Z,22.65
2022-12-03T02:39:32.734Z,22.85
2022-12-03T02:42:18.900Z,25.63
2022-12-03T02:44:46.378Z,24.08
2022-12-03T02:47:15.328Z,27.45
2022-12-03T02:49:43.055Z,29.38
2022-12-03T02:52:10.989Z,28.02
2022-12-03T02:54:38.897Z,33.28
2022-12-03T02:57:06.611Z,33.78
2022-12-03T02:59:34.351Z,34.75
2022-12-03T03:02:02.021Z,36.38
2022-12-03T03:04:32.542Z,30.10
2022-12-03T03:07:00.236Z,31.38
2022-12-03T03:09:27.939Z,28.75
2022-12-03T03:11:55.428Z,28.48
2022-12-03T03:14:23.023Z,24.95
2022-12-03T03:16:55.859Z,23.73
2022-12-03T03:19:24.670Z,27.73
2022-12-03T03:21:53.185Z,22.63
2022-12-03T03:24:22.202Z,23.38
2022-12-03T03:26:50.285Z,20.75
2022-12-03T03:29:18.055Z,18.88
2022-12-03T03:31:46.628Z,19.17
2022-12-03T03:34:14.763Z,19.02
2022-12-03T03:36:42.620Z,21.95
2022-12-03T03:39:10.383Z,22.30
2022-12-03T03:41:38.418Z,21.83
2022-12-03T03:44:07.080Z,23.05
2022-12-03T03:46:35.735Z,30.02
2022-12-03T03:49:04.198Z,30.85
2022-12-03T03:51:32.075Z,35.42
2022-12-03T03:53:59.727Z,31.70
2022-12-03T03:56:27.673Z,32.55
2022-12-03T03:58:55.975Z,34.63
2022-12-03T04:01:24.429Z,37.25
2022-12-03T04:03:53.576Z,37.78
2022-12-03T04:06:21.065Z,38.38
2022-12-03T04:08:48.545Z,34.63
2022-12-03T04:11:34.696Z,36.83
2022-12-03T04:14:02.872Z,45.67
2022-12-03T04:16:30.360Z,41.28
2022-12-03T04:18:58.079Z,45.42
2022-12-03T04:21:44.521Z,40.47
2022-12-03T04:24:12.197Z,37.60
2022-12-03T04:26:58.464Z,35.13
2022-12-03T04:29:26.150Z,46.75
2022-12-03T04:32:12.093Z,57.95
2022-12-03T04:34:58.634Z,35.75
2022-12-03T04:37:26.374Z,47.17
2022-12-03T04:39:53.882Z,30.65
2022-12-03T04:42:21.416Z,37.22
2022-12-03T04:44:49.018Z,41.78
2022-12-03T04:47:18.176Z,43.83
2022-12-03T04:49:54.752Z,33.60
2022-12-03T04:52:22.347Z,33.45
2022-12-03T04:54:49.918Z,36.83
2022-12-03T04:57:17.464Z,36.30
2022-12-03T04:59:44.969Z,36.22
2022-12-03T05:02:12.559Z,33.63
2022-12-03T05:04:40.097Z,50.75
2022-12-03T05:07:07.584Z,39.80
2022-12-03T05:09:35.068Z,47.20
2022-12-03T05:12:03.655Z,39.40
2022-12-03T05:14:31.203Z,37.13
2022-12-03T05:16:58.882Z,38.85
2022-12-03T05:19:46.344Z,37.45
2022-12-03T05:22:13.851Z,39.03
2022-12-03T05:24:41.423Z,35.47
2022-12-03T05:27:08.898Z,35.28
2022-12-03T05:29:36.316Z,35.50
2022-12-03T05:32:06.613Z,32.88
2022-12-03T05:34:34.213Z,33.43
2022-12-03T05:37:01.724Z,31.42
2022-12-03T05:39:32.020Z,38.38
2022-12-03T05:42:18.323Z,32.75
2022-12-03T05:44:46.053Z,30.00
2022-12-03T05:47:13.610Z,33.33
2022-12-03T05:49:41.203Z,33.17
2022-12-03T05:52:08.705Z,30.95
2022-12-03T05:54:36.245Z,32.17
2022-12-03T05:57:03.917Z,34.10
2022-12-03T05:59:31.387Z,32.85
2022-12-03T06:01:58.916Z,36.05
2022-12-03T06:04:26.451Z,35.65
2022-12-03T06:06:54.007Z,34.03
2022-12-03T06:09:21.514Z,33.90
2022-12-03T06:11:53.522Z,34.08
2022-12-03T06:14:21.411Z,32.28
2022-12-03T06:16:48.962Z,32.75
2022-12-03T06:19:16.448Z,33.70
2022-12-03T06:21:43.913Z,38.05
2022-12-03T06:24:11.475Z,32.15
2022-12-03T06:26:40.075Z,32.55
2022-12-03T06:29:07.657Z,32.47
2022-12-03T06:31:35.169Z,34.17
2022-12-03T06:34:02.817Z,29.33
2022-12-03T06:36:30.388Z,31.05
2022-12-03T06:38:57.982Z,33.95
2022-12-03T06:41:25.583Z,33.05
2022-12-03T06:43:53.132Z,30.67
2022-12-03T06:46:20.663Z,33.15
2022-12-03T06:48:48.251Z,33.95
2022-12-03T06:51:15.688Z,31.02
2022-12-03T06:53:43.220Z,30.02
2022-12-03T06:56:10.718Z,41.72
2022-12-03T06:58:38.217Z,38.30
2022-12-03T07:01:05.729Z,34.15
2022-12-03T07:03:33.275Z,35.03
2022-12-03T07:06:00.991Z,33.38
2022-12-03T07:08:28.608Z,30.55
2022-12-03T07:10:56.231Z,27.73
2022-12-03T07:13:24.455Z,26.98
2022-12-03T07:15:52.557Z,26.13
2022-12-03T07:18:21.081Z,27.70
2022-12-03T07:20:48.940Z,27.98
2022-12-03T07:23:16.492Z,28.77
2022-12-03T07:25:44.034Z,31.75
2022-12-03T07:28:11.753Z,27.73
2022-12-03T07:30:39.568Z,26.45
2022-12-03T07:33:07.165Z,24.73
2022-12-03T07:35:34.624Z,26.65
2022-12-03T07:38:02.393Z,27.50
2022-12-03T07:40:29.846Z,24.25
2022-12-03T07:42:58.627Z,22.63
2022-12-03T07:45:26.115Z,23.20
2022-12-03T07:50:42.103Z,23.90
2022-12-03T07:53:10.051Z,22.52
2022-12-03T07:55:37.649Z,23.73
2022-12-03T07:58:05.614Z,22.45
2022-12-03T08:00:33.262Z,22.70
2022-12-03T08:03:01.119Z,24.10
2022-12-03T08:05:29.754Z,23.55
2022-12-03T08:07:57.547Z,23.10
2022-12-03T08:10:26.547Z,19.45
2022-12-03T08:12:54.123Z,19.98
2022-12-03T08:15:24.294Z,20.45
2022-12-03T08:17:59.377Z,19.08
2022-12-03T08:20:28.868Z,21.83
2022-12-03T08:22:57.017Z,19.13
2022-12-03T08:25:29.311Z,18.38
2022-12-03T08:28:23.201Z,20.63
2022-12-03T08:30:58.067Z,21.35
2022-12-03T08:33:36.140Z,20.35
2022-12-03T08:36:11.729Z,19.58
2022-12-03T08:38:42.114Z,19.65
2022-12-03T08:41:36.746Z,18.63
2022-12-03T08:44:23.280Z,22.23
2022-12-03T08:47:01.095Z,18.27
2022-12-03T08:49:28.570Z,19.42
2022-12-03T08:51:57.954Z,20.25
2022-12-03T08:54:25.869Z,19.45
2022-12-03T08:56:54.817Z,21.27
2022-12-03T08:59:29.242Z,19.15
2022-12-03T09:01:57.431Z,21.90
2022-12-03T09:04:27.934Z,21.20
2022-12-03T09:06:55.531Z,21.35
2022-12-03T09:09:23.568Z,18.58
2022-12-03T09:11:51.701Z,18.00
2022-12-03T09:14:22.359Z,22.67
2022-12-03T09:16:56.673Z,19.27
2022-12-03T09:19:25.509Z,20.35
2022-12-03T09:21:53.912Z,24.40
2022-12-03T09:24:21.671Z,18.42
2022-12-03T09:26:49.388Z,20.75
2022-12-03T09:29:16.915Z,21.17
2022-12-03T09:31:44.538Z,20.65
2022-12-03T09:34:12.194Z,19.50
2022-12-03T09:36:39.806Z,18.27
2022-12-03T09:39:08.168Z,19.48
2022-12-03T09:41:35.889Z,18.25
2022-12-03T09:44:04.914Z,20.75
2022-12-03T09:46:34.004Z,24.55
2022-12-03T09:49:02.066Z,21.98
2022-12-03T09:51:32.237Z,20.75
2022-12-03T09:54:03.520Z,15.98
2022-12-03T09:56:46.275Z,19.75
2022-12-03T09:59:14.522Z,19.65
2022-12-03T10:01:42.461Z,20.38
2022-12-03T10:04:11.116Z,18.42
2022-12-03T10:06:45.272Z,20.58
2022-12-03T10:09:14.659Z,19.33
2022-12-03T10:11:42.175Z,16.52
2022-12-03T10:14:12.107Z,18.70
2022-12-03T10:16:40.483Z,20.08
2022-12-03T10:19:12.247Z,17.80
2022-12-03T10:21:39.816Z,19.15
2022-12-03T10:24:28.411Z,22.27
2022-12-03T10:26:57.375Z,19.35
2022-12-03T10:29:33.686Z,19.20
2022-12-03T10:32:08.944Z,20.52
2022-12-03T10:34:38.089Z,18.52
2022-12-03T10:37:22.141Z,18.20
2022-12-03T10:39:56.092Z,19.17
2022-12-03T10:42:24.824Z,21.25
2022-12-03T10:45:22.555Z,18.75
2022-12-03T10:48:04.461Z,19.92
2022-12-03T10:50:32.626Z,17.40
2022-12-03T10:53:01.102Z,18.13
2022-12-03T10:55:30.306Z,16.45
2022-12-03T10:57:57.926Z,15.98
2022-12-03T11:00:26.001Z,19.98
2022-12-03T11:05:45.649Z,17.40
2022-12-03T11:08:18.678Z,20.90
2022-12-03T11:10:48.829Z,17.35
2022-12-03T11:13:30.398Z,17.38
2022-12-03T11:16:01.764Z,19.58
2022-12-03T11:18:46.470Z,19.25
2022-12-03T11:21:25.403Z,19.92
2022-12-03T11:23:54.798Z,20.33
2022-12-03T11:26:37.297Z,18.85
2022-12-03T11:29:06.161Z,19.10
2022-12-03T11:31:40.340Z,16.30
2022-12-03T11:34:33.033Z,16.73
2022-12-03T11:37:14.100Z,16.25
2022-12-03T11:39:51.154Z,16.60
2022-12-03T11:42:31.475Z,17.15
2022-12-03T11:47:59.068Z,18.60
2022-12-03T11:56:10.477Z,21.50
2022-12-03T11:58:41.959Z,17.90
2022-12-03T12:01:09.925Z,19.90
2022-12-03T12:03:45.800Z,19.40
2022-12-03T12:06:15.042Z,19.52
2022-12-03T12:09:03.975Z,17.95
2022-12-03T12:11:31.551Z,17.38
2022-12-03T12:14:00.364Z,19.42
2022-12-03T12:16:50.686Z,15.30
2022-12-03T12:19:54.045Z,16.87
2022-12-03T12:22:25.489Z,15.75
2022-12-03T12:24:54.215Z,14.82
2022-12-03T12:27:21.790Z,15.32
2022-12-03T12:29:54.818Z,16.77
2022-12-03T12:32:33.155Z,17.17
2022-12-03T12:35:06.501Z,20.08
2022-12-03T12:37:43.750Z,16.80
2022-12-03T12:40:15.879Z,17.33
2022-12-03T12:42:45.397Z,18.77
2022-12-03T12:45:17.820Z,18.90
2022-12-03T12:47:50.059Z,18.92
2022-12-03T12:50:21.241Z,17.88
2022-12-03T12:52:52.466Z,15.38
2022-12-03T12:55:20.600Z,17.30
2022-12-03T12:57:49.258Z,16.60
2022-12-03T13:00:22.604Z,16.10
2022-12-03T13:02:59.129Z,16.23
2022-12-03T13:05:41.496Z,16.58
2022-12-03T13:11:12.409Z,16.48
2022-12-03T13:13:43.900Z,15.52
2022-12-03T13:16:19.905Z,15.70
2022-12-03T13:18:48.795Z,16.52
2022-12-03T13:21:50.032Z,16.85
2022-12-03T13:24:32.472Z,15.98
2022-12-03T13:27:03.139Z,16.63
2022-12-03T13:29:40.408Z,17.00
2022-12-03T13:32:18.186Z,15.93
2022-12-03T13:34:46.738Z,16.33
2022-12-03T13:37:20.735Z,16.85
2022-12-03T13:39:53.550Z,16.55
2022-12-03T13:42:39.110Z,16.27
2022-12-03T13:45:28.858Z,18.15
2022-12-03T13:48:03.343Z,16.70
2022-12-03T13:51:17.310Z,14.68
2022-12-03T13:53:44.857Z,16.73
2022-12-03T13:56:28.161Z,17.27
2022-12-03T13:58:56.387Z,16.45
2022-12-03T14:01:24.221Z,18.23
2022-12-03T14:03:51.888Z,19.13
2022-12-03T14:06:27.304Z,14.00
2022-12-03T14:08:58.652Z,17.77
2022-12-03T14:11:44.891Z,17.27
2022-12-03T14:14:12.594Z,17.85
2022-12-03T14:16:42.036Z,18.50
2022-12-03T14:19:10.054Z,16.83
2022-12-03T14:21:37.658Z,17.10
2022-12-03T14:24:05.475Z,15.88
2022-12-03T14:26:37.197Z,17.70
2022-12-03T14:29:08.743Z,17.80
2022-12-03T14:31:40.019Z,17.13
2022-12-03T14:34:07.688Z,16.98
2022-12-03T14:36:35.319Z,17.05
2022-12-03T14:39:05.363Z,20.13
2022-12-03T14:41:51.528Z,17.10
2022-12-03T14:44:25.645Z,17.83
2022-12-03T14:46:57.539Z,19.60
2022-12-03T14:49:25.915Z,18.77
2022-12-03T14:52:00.841Z,19.50
2022-12-03T14:54:36.030Z,19.33
2022-12-03T14:57:08.513Z,16.25
2022-12-03T14:59:44.442Z,17.38
2022-12-03T15:02:12.451Z,18.83
2022-12-03T15:04:43.243Z,19.65
2022-12-03T15:09:54.963Z,19.85
2022-12-03T15:18:02.663Z,21.02
2022-12-03T15:20:30.879Z,20.58
2022-12-03T15:23:14.046Z,18.92
2022-12-03T15:25:51.403Z,19.30
2022-12-03T15:28:19.128Z,18.50
2022-12-03T15:30:46.868Z,15.00
2022-12-03T15:33:19.001Z,18.30
2022-12-03T15:35:48.127Z,18.13
2022-12-03T15:38:25.712Z,16.67
2022-12-03T15:40:53.283Z,15.38
2022-12-03T15:43:20.917Z,17.00
2022-12-03T15:45:48.680Z,17.20
2022-12-03T15:48:27.721Z,16.60
2022-12-03T15:53:47.744Z,15.43
2022-12-03T15:56:16.797Z,17.77
2022-12-03T15:58:57.157Z,18.52
2022-12-03T16:01:25.279Z,16.70
2022-12-03T16:03:52.910Z,18.60
2022-12-03T16:06:20.524Z,17.60
2022-12-03T16:08:48.452Z,18.50
2022-12-03T16:11:16.121Z,16.83
2022-12-03T16:13:43.835Z,18.55
2022-12-03T16:16:11.603Z,17.10
2022-12-03T16:18:39.340Z,17.77
2022-12-03T16:21:07.206Z,17.08
2022-12-03T16:23:37.193Z,16.35
2022-12-03T16:26:04.772Z,16.77
2022-12-03T16:28:32.457Z,16.92
2022-12-03T16:31:03.096Z,17.40
2022-12-03T16:33:33.467Z,17.02
2022-12-03T16:36:03.076Z,17.08
2022-12-03T16:38:33.925Z,15.57
2022-12-03T16:41:05.015Z,18.38
2022-12-03T16:43:40.664Z,18.75
2022-12-03T16:46:25.264Z,17.45
2022-12-03T16:48:57.836Z,19.90
2022-12-03T16:51:32.535Z,19.42
2022-12-03T16:54:02.666Z,20.77
2022-12-03T16:56:40.795Z,16.08
2022-12-03T16:59:08.483Z,17.02
2022-12-03T17:01:40.207Z,21.05
2022-12-03T17:04:10.866Z,18.55
2022-12-03T17:06:47.394Z,20.08
2022-12-03T17:09:15.179Z,18.25
2022-12-03T17:11:42.825Z,17.73
2022-12-03T17:14:15.646Z,20.58
2022-12-03T17:19:24.886Z,17.10
2022-12-03T17:21:53.959Z,17.55
2022-12-03T17:24:21.711Z,17.20
2022-12-03T17:26:49.466Z,20.00
2022-12-03T17:32:10.985Z,20.33
2022-12-03T17:34:40.761Z,20.85
2022-12-03T17:37:16.601Z,21.67
2022-12-03T17:39:44.304Z,23.10
2022-12-03T17:42:11.938Z,22.02
2022-12-03T17:44:41.555Z,20.35
2022-12-03T17:48:05.133Z,21.73
2022-12-03T17:55:37.241Z,21.77
2022-12-03T17:58:17.250Z,21.30
2022-12-03T18:00:44.913Z,21.20
2022-12-03T18:03:14.878Z,23.10
2022-12-03T18:05:42.539Z,24.70
2022-12-03T18:08:10.278Z,21.60
2022-12-03T18:10:38.140Z,22.95
2022-12-03T18:13:07.605Z,23.05
2022-12-03T18:15:36.415Z,21.98
2022-12-03T18:18:04.654Z,21.40
2022-12-03T18:20:33.263Z,23.63
2022-12-03T18:23:00.865Z,26.55
2022-12-03T18:25:28.796Z,26.20
2022-12-03T18:28:04.130Z,25.40
2022-12-03T18:30:31.672Z,26.35
2022-12-03T18:32:59.119Z,27.73
2022-12-03T18:35:26.720Z,25.35
2022-12-03T18:37:54.269Z,23.98
2022-12-03T18:40:26.952Z,26.25
2022-12-03T18:42:54.854Z,23.83
2022-12-03T18:45:22.649Z,23.42
2022-12-03T18:47:50.342Z,28.75
2022-12-03T18:50:18.131Z,29.67
2022-12-03T18:52:45.711Z,26.25
2022-12-03T18:55:25.988Z,29.00
2022-12-03T19:00:44.458Z,27.33
2022-12-03T19:03:12.517Z,26.52
2022-12-03T19:05:40.867Z,24.40
2022-12-03T19:08:15.905Z,24.92
2022-12-03T19:10:44.176Z,23.52
2022-12-03T19:13:12.274Z,25.77
2022-12-03T19:15:40.468Z,25.13
2022-12-03T19:18:08.019Z,28.65
2022-12-03T19:20:35.646Z,24.52
2022-12-03T19:23:03.548Z,26.65
2022-12-03T19:25:31.093Z,23.63
2022-12-03T19:27:58.671Z,23.88
2022-12-03T19:30:26.206Z,24.95
2022-12-03T19:32:53.745Z,24.92
2022-12-03T19:35:21.701Z,26.00
2022-12-03T19:37:50.374Z,23.85
2022-12-03T19:40:18.154Z,28.50
2022-12-03T19:42:45.644Z,24.92
2022-12-03T19:45:13.325Z,18.30
2022-12-03T19:47:40.910Z,20.33
2022-12-03T19:50:08.860Z,19.25
2022-12-03T19:52:39.593Z,16.73
2022-12-03T19:55:07.308Z,17.63
2022-12-03T19:57:34.847Z,17.25
2022-12-03T20:00:02.451Z,16.92
2022-12-03T20:02:39.917Z,24.10
2022-12-03T20:05:07.643Z,21.85
2022-12-03T20:07:35.281Z,17.13
2022-12-03T20:10:03.066Z,15.43
2022-12-03T20:12:30.792Z,13.82
2022-12-03T20:14:58.386Z,12.93
2022-12-03T20:17:26.108Z,17.48
2022-12-03T20:19:54.024Z,16.05
2022-12-03T20:22:21.929Z,12.23
2022-12-03T20:24:49.750Z,13.35
2022-12-03T20:27:22.598Z,14.93
2022-12-03T20:29:50.673Z,14.32
2022-12-03T20:32:18.362Z,15.05
2022-12-03T20:34:46.098Z,13.88
2022-12-03T20:37:13.765Z,15.48
2022-12-03T20:39:41.483Z,14.23
2022-12-03T20:42:12.164Z,14.32
2022-12-03T20:44:39.802Z,13.70
2022-12-03T20:47:10.269Z,15.38
2022-12-03T20:49:39.033Z,13.35
2022-12-03T20:52:06.730Z,15.00
2022-12-03T20:54:34.410Z,14.15
2022-12-03T20:57:01.985Z,13.07
2022-12-03T20:59:29.657Z,16.58
2022-12-03T21:01:57.509Z,16.08
2022-12-03T21:04:25.293Z,15.13
2022-12-03T21:06:57.386Z,14.07
2022-12-03T21:12:07.229Z,15.80
2022-12-03T21:14:38.537Z,16.08
2022-12-03T21:17:19.101Z,15.65
2022-12-03T21:19:47.377Z,15.07
2022-12-03T21:22:15.201Z,14.48
2022-12-03T21:24:45.146Z,16.63
2022-12-03T21:27:30.759Z,15.13
2022-12-03T21:29:58.387Z,13.15
2022-12-03T21:32:27.136Z,15.15
2022-12-03T21:34:55.919Z,14.70
2022-12-03T21:37:23.429Z,14.00
2022-12-03T21:39:51.350Z,12.75
2022-12-03T21:42:36.567Z,13.32
2022-12-03T21:45:05.692Z,16.13
2022-12-03T21:47:37.339Z,13.48
2022-12-03T21:50:11.211Z,12.93
2022-12-03T21:52:39.308Z,12.98
2022-12-03T21:55:12.186Z,14.35
2022-12-03T21:57:45.244Z,14.50
2022-12-03T22:00:15.937Z,13.73
2022-12-03T22:02:43.682Z,14.13
2022-12-03T22:05:16.413Z,15.13
2022-12-03T22:07:44.307Z,15.48
2022-12-03T22:10:12.466Z,15.88
2022-12-03T22:12:43.165Z,14.18
2022-12-03T22:15:18.119Z,14.75
2022-12-03T22:20:28.537Z,15.68
2022-12-03T22:22:57.206Z,16.15
2022-12-03T22:25:24.913Z,15.57
2022-12-03T22:27:54.433Z,16.13
2022-12-03T22:30:32.467Z,16.17
2022-12-03T22:33:00.024Z,14.93
2022-12-03T22:35:27.747Z,17.02
2022-12-03T22:37:59.159Z,18.17
2022-12-03T22:40:27.573Z,16.92
2022-12-03T22:43:00.299Z,17.58
2022-12-03T22:45:27.881Z,16.30
2022-12-03T22:47:55.517Z,18.95
2022-12-03T22:50:25.871Z,14.52
2022-12-03T22:52:53.356Z,16.27
2022-12-03T22:55:20.955Z,20.63
2022-12-03T22:57:48.514Z,16.38
2022-12-03T23:00:16.892Z,14.45
2022-12-03T23:02:44.496Z,18.40
2022-12-03T23:05:11.960Z,17.00
2022-12-03T23:07:39.535Z,18.20
2022-12-03T23:10:07.531Z,17.48
2022-12-03T23:12:35.124Z,19.25
2022-12-03T23:15:02.681Z,18.15
2022-12-03T23:17:30.168Z,17.40
2022-12-03T23:19:57.932Z,16.80
2022-12-03T23:22:25.492Z,17.70
2022-12-03T23:24:53.025Z,16.63
2022-12-03T23:27:20.787Z,16.17
2022-12-03T23:29:48.316Z,17.95
2022-12-03T23:32:16.300Z,17.05
2022-12-03T23:34:43.841Z,18.98
2022-12-03T23:37:11.500Z,15.85
2022-12-03T23:39:39.191Z,17.52
2022-12-03T23:42:06.781Z,18.13
2022-12-03T23:44:34.352Z,18.50
2022-12-03T23:47:02.287Z,18.35
2022-12-03T23:49:29.894Z,23.83
2022-12-03T23:52:00.331Z,18.75
2022-12-03T23:54:27.849Z,17.38
2022-12-03T23:56:55.566Z,18.58
2022-12-03T23:59:23.077Z,18.58
